Latest Weather Observations for Fowlers Gap

IDN60801

Issued at 5:22 pm EST Friday 1 July 2022 (issued every 10 minutes, with the page automatically refreshed every 10 minutes)

About weather observations | Map of weather stations | Latest weather observations for NSW | Other Formats
Station Details ID: 046128 Name: FOWLERS GAP AWS Lat: -31.09 Lon: 141.70 Height: 181.0 m
Data from the previous 72 hours. | See also: Recent months at Fowlers Gap
Date/Time
EST
Temp
°C
App
Temp
°C
Dew
Point
°C
Rel
Hum
%
Delta-T
°C
Wind Press
QNH
hPa
Press
MSL
hPa
Rain since
9am
mm
Dir  Spd
km/h
Gust
km/h
Spd
kts
Gust
kts
01/05:00pm 12.9 6.2 3.8 54 4.1 SSE 28 35 15 19 1026.9 1027.0 0.0
01/04:30pm 13.5 7.2 3.8 52 4.4 SSE 26 39 14 21 1026.5 1026.7 0.0
01/04:00pm 14.2 8.4 4.2 51 4.6 SSE 24 33 13 18 1026.7 1026.8 0.0
01/03:30pm 14.2 7.2 4.2 51 4.6 SSE 30 39 16 21 1026.4 1026.6 0.0
01/03:00pm 14.5 7.8 3.9 49 4.9 SSE 28 37 15 20 1026.5 1026.7 0.0
01/02:30pm 14.3 7.2 3.5 48 4.9 SSE 30 41 16 22 1026.7 1026.8 0.0
01/02:00pm 14.0 6.6 4.0 51 4.6 SSE 32 41 17 22 1026.7 1026.8 0.0
01/01:30pm 13.9 6.6 4.5 53 4.4 SSE 32 43 17 23 1027.0 1027.2 0.0
01/01:00pm 13.7 6.4 4.6 54 4.2 SSE 32 43 17 23 1027.1 1027.3 0.0
01/12:30pm 13.6 6.5 5.3 57 3.9 SSE 32 39 17 21 1027.7 1027.9 0.0
01/12:00pm 12.9 5.6 4.6 57 3.8 SSE 32 44 17 24 1028.2 1028.4 0.0
01/11:30am 12.4 6.1 5.6 63 3.2 SSE 28 37 15 20 1028.2 1028.4 0.0
01/11:00am 11.6 5.4 6.1 69 2.6 SSE 28 37 15 20 1028.2 1028.4 0.0
01/10:30am 10.5 4.3 6.1 74 2.1 SSE 28 35 15 19 1028.5 1028.7 0.0
01/10:00am 8.9 3.0 5.6 80 1.5 S 26 32 14 17 1028.7 1028.9 0.0
01/09:30am 8.0 2.4 5.5 84 1.1 S 24 30 13 16 1028.4 1028.6 0.0
01/09:00am 7.3 2.4 5.1 86 1.0 S 20 28 11 15 1028.4 1028.6 0.0
01/08:30am 6.9 2.0 5.1 88 0.8 S 20 26 11 14 1028.2 1028.3 0.0
01/08:00am 6.8 1.9 5.0 88 0.8 S 20 26 11 14 1027.6 1027.7 0.0
01/07:30am 6.6 2.3 5.1 90 0.7 S 17 22 9 12 1027.2 1027.3 0.0
01/07:00am 6.6 1.8 4.9 89 0.7 S 19 24 10 13 1026.5 1026.7 0.0
01/06:30am 6.8 2.5 5.3 90 0.7 S 17 22 9 12 1026.3 1026.5 0.0
01/06:00am 6.9 3.0 5.4 90 0.7 S 15 19 8 10 1026.3 1026.5 0.0
01/05:30am 7.0 3.5 5.6 91 0.6 S 13 17 7 9 1026.4 1026.6 0.0
01/05:00am 7.1 3.2 5.4 89 0.8 S 15 19 8 10 1026.3 1026.5 0.0
01/04:30am 7.3 3.8 5.6 89 0.8 S 13 19 7 10 1026.8 1026.9 0.0
01/04:00am 7.2 3.7 5.5 89 0.8 S 13 17 7 9 1026.3 1026.5 0.0
01/03:30am 7.6 3.4 5.7 88 0.9 SSE 17 20 9 11 1026.3 1026.5 0.0
01/03:00am 7.5 3.7 5.6 88 0.9 S 15 19 8 10 1026.2 1026.4 0.0
01/02:30am 7.1 3.9 5.3 88 0.8 S 11 15 6 8 1026.3 1026.5 0.0
01/02:00am 7.3 3.8 5.3 87 0.9 SSE 13 15 7 8 1026.0 1026.2 0.0
01/01:30am 7.1 4.2 4.9 86 1.0 SSE 9 11 5 6 1026.1 1026.3 0.0
01/01:00am 7.2 4.0 4.9 85 1.0 SSE 11 13 6 7 1025.9 1026.1 0.0
01/12:30am 7.1 4.2 4.6 84 1.1 SSE 9 11 5 6 1026.0 1026.2 0.0
01/12:00am 7.8 5.2 4.4 79 1.5 SSE 7 9 4 5 1025.9 1026.1 0.0
 
Date/Time
EST
Temp
°C
App
Temp
°C
Dew
Point
°C
Rel
Hum
%
Delta-T
°C
Wind Press
QNH
hPa
Press
MSL
hPa
Rain since
9am
mm
Dir  Spd
km/h
Gust
km/h
Spd
kts
Gust
kts
30/11:30pm 8.3 5.8 4.7 78 1.6 SSE 7 11 4 6 1025.8 1026.0 0.0
30/11:00pm 9.2 6.4 5.0 75 1.9 SSE 9 11 5 6 1025.8 1026.0 0.0
30/10:30pm 9.9 7.1 5.1 72 2.2 SSE 9 13 5 7 1025.9 1026.1 0.0
30/10:00pm 10.4 7.7 5.4 71 2.3 SSE 9 11 5 6 1025.9 1026.1 0.0
30/09:30pm 10.3 7.5 5.1 70 2.4 SE 9 9 5 5 1025.7 1025.9 0.0
30/09:00pm 9.5 6.6 4.9 73 2.1 S 9 11 5 6 1025.1 1025.3 0.0
30/08:30pm 9.8 6.5 4.8 71 2.3 SSE 11 11 6 6 1025.0 1025.2 0.0
30/08:00pm 10.5 7.6 4.9 68 2.5 SSE 9 11 5 6 1024.6 1024.8 0.0
30/07:30pm 11.5 8.3 5.2 65 2.9 SSE 11 13 6 7 1024.3 1024.5 0.0
30/07:00pm 12.5 9.8 5.4 62 3.3 SSE 9 11 5 6 1023.8 1024.0 0.0
30/06:30pm 13.2 9.7 5.6 60 3.6 SSE 13 17 7 9 1023.3 1023.4 0.0
30/06:00pm 14.0 9.4 5.6 57 4.0 SSE 19 24 10 13 1023.0 1023.1 0.0
30/05:30pm 14.3 10.7 4.9 53 4.4 SW 13 15 7 8 1022.6 1022.7 0.0
30/05:00pm 15.0 11.0 5.0 51 4.7 WSW 15 20 8 11 1022.4 1022.5 0.0
30/04:30pm 15.9 11.5 4.6 47 5.4 SW 17 24 9 13 1022.2 1022.3 0.0
30/04:00pm 16.1 11.3 4.8 47 5.4 SW 19 22 10 12 1022.2 1022.3 0.0
30/03:30pm 16.2 11.8 4.6 46 5.5 SW 17 22 9 12 1022.2 1022.3 0.0
30/03:00pm 16.0 11.9 4.4 46 5.5 SW 15 20 8 11 1022.3 1022.4 0.0
30/02:30pm 16.3 11.9 4.7 46 5.5 SW 17 24 9 13 1022.3 1022.4 0.0
30/02:00pm 15.7 12.1 5.0 49 5.1 SW 13 20 7 11 1022.5 1022.6 0.0
30/01:30pm 16.1 13.3 5.1 48 5.3 SW 9 19 5 10 1022.7 1022.8 0.0
30/01:00pm 15.7 12.2 5.6 51 4.9 SSW 13 19 7 10 1023.3 1023.4 0.0
30/12:30pm 15.4 12.9 6.4 55 4.4 SSE 9 17 5 9 1023.5 1023.6 0.0
30/12:00pm 14.5 11.2 6.6 59 3.8 SE 13 19 7 10 1023.7 1023.9 0.0
30/11:30am 14.1 10.8 6.5 60 3.7 SSE 13 19 7 10 1023.9 1024.1 0.0
30/11:00am 13.7 10.8 6.6 62 3.4 SSE 11 15 6 8 1024.0 1024.2 0.0
30/10:30am 13.3 11.9 5.7 60 3.6 NNE 2 9 1 5 1024.2 1024.4 0.0
30/10:00am 10.8 8.3 3.6 61 3.2 N 6 6 3 3 1024.3 1024.5 0.0
30/09:30am 8.1 5.3 2.1 66 2.5 WSW 6 9 3 5 1024.2 1024.4 0.0
30/09:00am 6.0 3.1 1.7 74 1.7 WNW 6 7 3 4 1024.0 1024.2 0.0
30/08:30am 3.7 0.5 0.8 81 1.1 WSW 7 9 4 5 1023.8 1024.0 0.0
30/08:00am 2.1 -0.6 0.0 86 0.8 W 4 9 2 5 1023.7 1023.9 0.0
30/07:30am 1.5 -0.9 -0.4 87 0.7 WNW 2 7 1 4 1023.2 1023.3 0.0
30/07:00am 2.1 -1.5 0.3 88 0.7 NW 9 11 5 6 1023.2 1023.3 0.0
30/06:30am 2.1 -2.0 0.0 86 0.8 WNW 11 11 6 6 1022.7 1022.8 0.0
30/06:00am 2.6 -0.6 0.5 86 0.8 WNW 7 11 4 6 1022.5 1022.6 0.0
30/05:30am 2.8 -0.7 1.0 88 0.7 WNW 9 11 5 6 1022.2 1022.3 0.0
30/05:00am 2.4 -0.9 0.3 86 0.8 NW 7 9 4 5 1022.2 1022.3 0.0
30/04:30am 3.0 0.7 0.6 84 0.9 WSW 2 7 1 4 1022.3 1022.4 0.0
30/04:00am 3.9 0.8 1.4 84 1.0 WNW 7 11 4 6 1022.4 1022.5 0.0
30/03:30am 3.7 0.8 1.6 86 0.8 NNW 6 7 3 4 1022.3 1022.4 0.0
30/03:00am 4.7 2.0 2.6 86 0.9 W 6 7 3 4 1022.3 1022.4 0.0
30/02:30am 4.3 1.9 2.3 87 0.8 SW 4 7 2 4 1022.5 1022.6 0.0
30/02:00am 4.8 1.5 2.7 86 0.9 SW 9 11 5 6 1022.4 1022.5 0.0
30/01:30am 6.4 4.2 3.4 81 1.3 WNW 4 7 2 4 1022.3 1022.4 0.0
30/01:00am 6.3 3.2 3.5 82 1.2 WSW 9 11 5 6 1022.4 1022.5 0.0
30/12:30am 7.6 4.3 4.4 80 1.4 SW 11 13 6 7 1022.3 1022.4 0.0
30/12:00am 7.9 5.0 4.8 81 1.4 WSW 9 13 5 7 1022.3 1022.4 0.0
 
Date/Time
EST
Temp
°C
App
Temp
°C
Dew
Point
°C
Rel
Hum
%
Delta-T
°C
Wind Press
QNH
hPa
Press
MSL
hPa
Rain since
9am
mm
Dir  Spd
km/h
Gust
km/h
Spd
kts
Gust
kts
29/11:30pm 8.2 5.7 4.8 79 1.5 SW 7 9 4 5 1022.4 1022.5 0.0
29/11:00pm 8.8 7.6 4.8 76 1.8 CALM 0 0 0 0 1022.3 1022.4 0.0
29/10:30pm 9.3 6.6 5.5 77 1.7 WNW 9 13 5 7 1022.1 1022.2 0.0
29/10:00pm 9.1 7.0 5.7 79 1.6 SW 6 7 3 4 1022.0 1022.1 0.0
29/09:30pm 9.2 8.2 5.6 78 1.7 CALM 0 0 0 0 1021.7 1021.8 0.0
29/09:00pm 9.4 7.2 5.4 76 1.8 SSE 6 7 3 4 1022.0 1022.1 0.0
29/08:30pm 9.7 7.5 5.5 75 1.9 SSW 6 7 3 4 1021.7 1021.8 0.0
29/08:00pm 10.5 7.9 5.9 73 2.1 ENE 9 9 5 5 1021.9 1022.0 0.0
29/07:30pm 10.9 9.8 5.2 68 2.6 CALM 0 9 0 5 1022.0 1022.1 0.0
29/07:00pm 11.2 10.1 5.1 66 2.8 CALM 0 2 0 1 1022.0 1022.1 0.0
29/06:30pm 11.8 9.5 5.0 63 3.1 NW 6 7 3 4 1022.4 1022.5 0.0
29/06:00pm 12.4 10.1 4.6 59 3.6 NW 6 7 3 4 1022.0 1022.1 0.0
29/05:30pm 12.8 10.4 4.5 57 3.8 NW 6 7 3 4 1022.0 1022.1 0.0
29/05:00pm 13.3 10.3 3.9 53 4.3 WNW 9 11 5 6 1022.0 1022.1 0.0
29/04:30pm 13.5 11.8 4.1 53 4.3 NNW 2 7 1 4 1022.1 1022.2 0.0
29/04:00pm 13.7 12.3 3.5 50 4.6 CALM 0 0 0 0 1021.6 1021.7 0.0
29/03:30pm 13.8 11.2 3.3 49 4.8 W 6 9 3 5 1021.7 1021.8 0.0
29/03:00pm 14.1 11.6 3.8 50 4.7 S 6 11 3 6 1021.5 1021.6 0.0
29/02:30pm 13.7 11.8 2.9 48 4.8 SE 2 6 1 3 1021.1 1021.2 0.0
29/02:00pm 13.9 11.7 3.1 48 4.9 NW 4 9 2 5 1021.9 1022.0 0.0
29/01:30pm 13.7 11.2 3.5 50 4.6 NNW 6 9 3 5 1022.9 1023.0 0.0
29/01:00pm 13.5 10.8 3.6 51 4.5 NNW 7 11 4 6 1023.1 1023.2 0.0
29/12:30pm 13.0 9.8 3.1 51 4.4 NNW 9 13 5 7 1023.8 1024.0 0.0
29/12:00pm 12.7 10.1 3.1 52 4.3 NE 6 9 3 5 1024.0 1024.2 0.0
29/11:30am 11.6 10.3 4.1 60 3.4 CALM 0 0 0 0 1024.8 1025.0 0.0
29/11:00am 10.9 9.5 3.7 61 3.2 CALM 0 0 0 0 1025.0 1025.2 0.0
29/10:30am 10.2 8.7 2.8 60 3.2 CALM 0 0 0 0 1025.0 1025.2 0.0
29/10:00am 8.8 7.4 3.4 69 2.3 CALM 0 0 0 0 1025.0 1025.2 0.0
29/09:30am 7.3 5.5 3.2 75 1.7 WNW 2 6 1 3 1024.9 1025.1 0.0
29/09:00am 6.5 4.2 2.9 78 1.5 SSW 4 7 2 4 1024.7 1024.9 0.0
29/08:30am 5.9 4.3 2.5 79 1.4 CALM 0 0 0 0 1025.0 1025.2 0.0
29/08:00am 5.7 4.1 2.7 81 1.2 CALM 0 6 0 3 1024.9 1025.1 0.0
29/07:30am 5.9 4.0 2.9 81 1.3 WSW 2 6 1 3 1024.7 1024.9 0.0
29/07:00am 5.8 4.2 2.6 80 1.3 CALM 0 0 0 0 1024.4 1024.6 0.0
29/06:30am 5.7 4.1 2.7 81 1.2 CALM 0 0 0 0 1024.5 1024.7 0.0
29/06:00am 5.5 3.9 2.5 81 1.2 CALM 0 0 0 0 1024.4 1024.6 0.0
29/05:30am 5.1 3.5 2.3 82 1.1 CALM 0 0 0 0 1024.0 1024.2 0.0
29/05:00am 5.2 3.6 2.2 81 1.2 CALM 0 0 0 0 1024.4 1024.6 0.0
29/04:30am 5.1 3.4 1.9 80 1.3 CALM 0 0 0 0 1024.6 1024.8 0.0
29/04:00am 5.1 3.1 2.1 81 1.2 W 2 6 1 3 1024.8 1025.0 0.0
29/03:30am 5.6 2.6 2.1 78 1.4 WSW 7 9 4 5 1025.0 1025.2 0.0
29/03:00am 5.4 2.4 1.7 77 1.5 SW 7 9 4 5 1024.8 1025.0 0.0
29/02:30am 5.9 4.2 2.0 76 1.6 CALM 0 0 0 0 1024.8 1025.0 0.0
29/02:00am 6.1 3.3 2.0 75 1.7 WSW 6 7 3 4 1024.9 1025.1 0.0
29/01:30am 5.9 3.9 2.4 78 1.4 NW 2 9 1 5 1025.0 1025.2 0.0
29/01:00am 6.1 4.4 2.0 75 1.7 CALM 0 0 0 0 1025.4 1025.6 0.0
29/12:30am 6.5 3.7 2.0 73 1.8 W 6 7 3 4 1025.4 1025.6 0.0
29/12:00am 6.9 3.9 2.0 71 2.0 WNW 7 7 4 4 1025.7 1025.9 0.0
 
Date/Time
EST
Temp
°C
App
Temp
°C
Dew
Point
°C
Rel
Hum
%
Delta-T
°C
Wind Press
QNH
hPa
Press
MSL
hPa
Rain since
9am
mm
Dir  Spd
km/h
Gust
km/h
Spd
kts
Gust
kts
28/11:30pm 7.4 4.5 1.7 67 2.3 NE 6 7 3 4 1025.8 1026.0 0.0
28/11:00pm 8.7 5.3 1.6 61 2.9 ENE 9 11 5 6 1025.9 1026.1 0.0
28/10:30pm 8.9 5.9 1.8 61 3.0 ENE 7 11 4 6 1026.5 1026.7 0.0
28/10:00pm 8.7 5.9 1.8 62 2.9 SSW 6 9 3 5 1026.5 1026.7 0.0
28/09:30pm 8.2 5.4 2.0 65 2.6 SSW 6 9 3 5 1026.8 1026.9 0.0
28/09:00pm 8.9 6.4 1.6 60 3.0 SE 4 9 2 5 1027.1 1027.2 0.0
28/08:30pm 8.5 5.4 1.6 62 2.9 SW 7 9 4 5 1027.1 1027.2 0.0
28/08:00pm 10.2 7.2 1.1 53 3.8 SSE 6 9 3 5 1027.0 1027.1 0.0
28/07:30pm 11.7 7.3 0.5 46 4.7 ESE 13 19 7 10 1026.7 1026.8 0.0
28/07:00pm 10.6 6.8 1.7 54 3.8 SE 11 13 6 7 1026.9 1027.0 0.0
28/06:30pm 10.4 7.4 2.3 57 3.5 SE 7 9 4 5 1026.9 1027.0 0.0
28/06:00pm 11.6 8.2 2.1 52 4.1 SSE 9 11 5 6 1026.7 1026.8 0.0
28/05:30pm 12.3 9.0 2.5 51 4.3 SE 9 11 5 6 1026.4 1026.6 0.0

Other formats

Comma delimited format used in spreadsheet applications
http://www.bom.gov.au/fwo/IDN60801/IDN60801.94686.axf

JavaScript Object Notation format (JSON) in row-major order
http://www.bom.gov.au/fwo/IDN60801/IDN60801.94686.json

Data quality

Most of these data are generated automatically and are frequently updated. Quality checks on data are not normally performed. It is possible for incorrect values to appear. Refer to information at About Latest Weather Observations and please check the disclaimer before using these data.